createdAt,value
2023-03-22T00:01:12.029Z,100.00
2023-03-22T00:03:39.513Z,100.00
2023-03-22T00:06:06.748Z,100.00
2023-03-22T00:08:33.688Z,100.00
2023-03-22T00:11:00.673Z,100.00
2023-03-22T00:13:27.782Z,100.00
2023-03-22T00:15:56.074Z,100.00
2023-03-22T00:18:22.919Z,100.00
2023-03-22T00:20:51.881Z,100.00
2023-03-22T00:23:19.048Z,100.00
2023-03-22T00:25:46.256Z,100.00
2023-03-22T00:28:14.373Z,100.00
2023-03-22T00:30:41.255Z,100.00
2023-03-22T00:33:08.715Z,100.00
2023-03-22T00:35:35.986Z,100.00
2023-03-22T00:38:14.087Z,100.00
2023-03-22T00:40:42.177Z,100.00
2023-03-22T00:43:09.105Z,100.00
2023-03-22T00:45:40.988Z,100.00
2023-03-22T00:48:12.290Z,100.00
2023-03-22T00:50:41.184Z,100.00
2023-03-22T00:53:08.270Z,100.00
2023-03-22T00:55:35.446Z,100.00
2023-03-22T00:58:02.879Z,100.00
2023-03-22T01:00:31.425Z,100.00
2023-03-22T01:02:59.883Z,100.00
2023-03-22T01:05:28.346Z,100.00
2023-03-22T01:07:55.664Z,100.00
2023-03-22T01:10:22.915Z,100.00
2023-03-22T01:12:49.847Z,100.00
2023-03-22T01:15:16.751Z,100.00
2023-03-22T01:17:43.724Z,100.00
2023-03-22T01:20:11.270Z,100.00
2023-03-22T01:22:38.972Z,100.00
2023-03-22T01:25:06.376Z,100.00
2023-03-22T01:27:33.250Z,100.00
2023-03-22T01:29:59.997Z,100.00
2023-03-22T01:32:27.076Z,100.00
2023-03-22T01:34:53.919Z,100.00
2023-03-22T01:37:22.065Z,100.00
2023-03-22T01:39:49.621Z,100.00
2023-03-22T01:42:18.222Z,100.00
2023-03-22T01:45:14.274Z,100.00
2023-03-22T01:47:52.249Z,100.00
2023-03-22T01:50:20.336Z,100.00
2023-03-22T01:52:49.791Z,100.00
2023-03-22T01:55:29.666Z,100.00
2023-03-22T01:58:08.041Z,100.00
2023-03-22T02:00:49.258Z,100.00
2023-03-22T02:04:08.960Z,100.00
2023-03-22T02:06:38.357Z,100.00
2023-03-22T02:09:12.749Z,100.00
2023-03-22T02:11:43.897Z,100.00
2023-03-22T02:14:37.630Z,100.00
2023-03-22T02:17:34.709Z,100.00
2023-03-22T02:20:25.255Z,100.00
2023-03-22T02:23:07.540Z,100.00
2023-03-22T02:25:59.000Z,100.00
2023-03-22T02:28:30.575Z,100.00
2023-03-22T02:31:24.202Z,100.00
2023-03-22T02:34:29.100Z,100.00
2023-03-22T02:37:02.199Z,100.00
2023-03-22T02:40:03.938Z,100.00
2023-03-22T02:43:08.453Z,100.00
2023-03-22T02:45:52.492Z,100.00
2023-03-22T02:48:31.010Z,100.00
2023-03-22T02:51:08.356Z,100.00
2023-03-22T02:53:53.134Z,100.00
2023-03-22T02:56:34.476Z,100.00
2023-03-22T02:59:04.522Z,100.00
2023-03-22T03:01:39.666Z,100.00
2023-03-22T03:04:12.753Z,100.00
2023-03-22T03:06:46.204Z,100.00
2023-03-22T03:09:19.342Z,100.00
2023-03-22T03:11:48.469Z,100.00
2023-03-22T03:14:29.662Z,100.00
2023-03-22T03:17:09.600Z,100.00
2023-03-22T03:19:43.563Z,100.00
2023-03-22T03:22:22.562Z,100.00
2023-03-22T03:25:38.473Z,100.00
2023-03-22T03:28:38.233Z,100.00
2023-03-22T03:31:27.154Z,100.00
2023-03-22T03:34:42.225Z,100.00
2023-03-22T03:37:18.645Z,100.00
2023-03-22T03:39:58.254Z,100.00
2023-03-22T03:42:28.987Z,100.00
2023-03-22T03:44:56.612Z,100.00
2023-03-22T03:47:24.237Z,100.00
2023-03-22T03:49:51.318Z,100.00
2023-03-22T03:52:19.070Z,100.00
2023-03-22T03:54:45.951Z,100.00
2023-03-22T03:57:17.749Z,100.00
2023-03-22T03:59:44.442Z,100.00
2023-03-22T04:02:20.718Z,100.00
2023-03-22T04:04:48.864Z,100.00
2023-03-22T04:07:15.760Z,100.00
2023-03-22T04:09:42.582Z,100.00
2023-03-22T04:12:20.625Z,100.00
2023-03-22T04:15:07.985Z,100.00
2023-03-22T04:17:34.962Z,100.00
2023-03-22T04:20:05.368Z,100.00
2023-03-22T04:22:38.424Z,100.00
2023-03-22T04:25:11.771Z,100.00
2023-03-22T04:27:42.993Z,100.00
2023-03-22T04:30:18.970Z,100.00
2023-03-22T04:33:01.440Z,100.00
2023-03-22T04:35:48.938Z,100.00
2023-03-22T04:38:17.997Z,100.00
2023-03-22T04:40:46.862Z,100.00
2023-03-22T04:43:28.257Z,100.00
2023-03-22T04:46:01.821Z,100.00
2023-03-22T04:48:41.245Z,100.00
2023-03-22T04:51:11.646Z,100.00
2023-03-22T04:53:45.398Z,100.00
2023-03-22T04:56:14.549Z,100.00
2023-03-22T04:58:43.183Z,100.00
2023-03-22T05:01:11.493Z,100.00
2023-03-22T05:03:42.971Z,100.00
2023-03-22T05:06:10.462Z,100.00
2023-03-22T05:08:48.708Z,100.00
2023-03-22T05:11:19.559Z,100.00
2023-03-22T05:13:57.977Z,100.00
2023-03-22T05:16:26.611Z,100.00
2023-03-22T05:18:56.638Z,100.00
2023-03-22T05:21:28.285Z,100.00
2023-03-22T05:23:59.206Z,100.00
2023-03-22T05:26:26.939Z,100.00
2023-03-22T05:28:56.124Z,100.00
2023-03-22T05:31:41.755Z,100.00
2023-03-22T05:34:09.764Z,100.00
2023-03-22T05:36:38.310Z,100.00
2023-03-22T05:39:28.271Z,100.00
2023-03-22T05:41:56.188Z,100.00
2023-03-22T05:44:23.167Z,100.00
2023-03-22T05:47:07.045Z,100.00
2023-03-22T05:49:36.672Z,100.00
2023-03-22T05:52:06.077Z,100.00
2023-03-22T05:54:51.715Z,100.00
2023-03-22T05:57:18.581Z,100.00
2023-03-22T05:59:45.658Z,100.00
2023-03-22T06:02:18.790Z,100.00
2023-03-22T06:04:46.710Z,100.00
2023-03-22T06:07:15.834Z,100.00
2023-03-22T06:09:47.436Z,100.00
2023-03-22T06:12:19.927Z,100.00
2023-03-22T06:14:51.317Z,100.00
2023-03-22T06:17:43.511Z,100.00
2023-03-22T06:20:14.401Z,100.00
2023-03-22T06:22:47.592Z,100.00
2023-03-22T06:25:15.738Z,100.00
2023-03-22T06:27:45.984Z,100.00
2023-03-22T06:30:13.278Z,100.00
2023-03-22T06:33:18.091Z,100.00
2023-03-22T06:35:49.295Z,100.00
2023-03-22T06:38:24.502Z,100.00
2023-03-22T06:40:52.603Z,100.00
2023-03-22T06:43:19.576Z,100.00
2023-03-22T06:45:49.178Z,100.00
2023-03-22T06:48:21.254Z,100.00
2023-03-22T06:50:56.971Z,100.00
2023-03-22T06:53:32.128Z,100.00
2023-03-22T06:55:59.522Z,100.00
2023-03-22T06:58:27.302Z,100.00
2023-03-22T07:00:56.165Z,100.00
2023-03-22T07:03:24.565Z,100.00
2023-03-22T07:06:04.617Z,100.00
2023-03-22T07:08:34.787Z,100.00
2023-03-22T07:11:03.829Z,100.00
2023-03-22T07:13:30.930Z,100.00
2023-03-22T07:16:02.740Z,100.00
2023-03-22T07:18:39.619Z,100.00
2023-03-22T07:21:06.797Z,100.00
2023-03-22T07:23:35.705Z,100.00
2023-03-22T07:26:07.912Z,100.00
2023-03-22T07:28:39.267Z,100.00
2023-03-22T07:31:11.661Z,100.00
2023-03-22T07:34:00.521Z,100.00
2023-03-22T07:36:30.756Z,100.00
2023-03-22T07:38:57.973Z,100.00
2023-03-22T07:41:30.668Z,100.00
2023-03-22T07:44:18.405Z,100.00
2023-03-22T07:47:05.917Z,100.00
2023-03-22T07:49:39.410Z,100.00
2023-03-22T07:52:09.216Z,100.00
2023-03-22T07:54:36.116Z,100.00
2023-03-22T07:57:06.808Z,100.00
2023-03-22T07:59:39.883Z,100.00
2023-03-22T08:02:11.153Z,100.00
2023-03-22T08:04:44.218Z,100.00
2023-03-22T08:07:24.924Z,100.00
2023-03-22T08:09:52.164Z,100.00
2023-03-22T08:12:19.745Z,100.00
2023-03-22T08:14:53.249Z,100.00
2023-03-22T08:17:26.053Z,100.00
2023-03-22T08:19:56.328Z,100.00
2023-03-22T08:22:34.128Z,100.00
2023-03-22T08:25:33.544Z,100.00
2023-03-22T08:28:07.459Z,100.00
2023-03-22T08:30:34.604Z,100.00
2023-03-22T08:33:01.412Z,100.00
2023-03-22T08:35:28.273Z,100.00
2023-03-22T08:37:56.531Z,100.00
2023-03-22T08:40:29.172Z,99.75
2023-03-22T08:43:00.265Z,98.68
2023-03-22T08:45:29.113Z,100.00
2023-03-22T08:48:05.849Z,100.00
2023-03-22T08:50:44.673Z,100.00
2023-03-22T08:53:20.582Z,100.00
2023-03-22T08:55:54.212Z,100.00
2023-03-22T08:58:31.144Z,100.00
2023-03-22T09:01:22.312Z,100.00
2023-03-22T09:03:57.480Z,100.00
2023-03-22T09:06:26.116Z,100.00
2023-03-22T09:08:53.841Z,100.00
2023-03-22T09:11:23.316Z,100.00
2023-03-22T09:13:50.504Z,100.00
2023-03-22T09:16:18.353Z,100.00
2023-03-22T09:18:46.238Z,100.00
2023-03-22T09:21:16.758Z,98.35
2023-03-22T09:23:57.700Z,97.33
2023-03-22T09:26:37.417Z,98.43
2023-03-22T09:29:05.970Z,98.16
2023-03-22T09:31:33.714Z,97.51
2023-03-22T09:34:16.090Z,97.27
2023-03-22T09:36:43.205Z,97.95
2023-03-22T09:39:10.740Z,99.43
2023-03-22T09:41:49.041Z,98.22
2023-03-22T09:44:22.769Z,96.65
2023-03-22T09:46:54.472Z,95.10
2023-03-22T09:49:26.272Z,96.24
2023-03-22T09:51:54.648Z,94.59
2023-03-22T09:54:21.750Z,91.29
2023-03-22T09:57:00.338Z,90.82
2023-03-22T09:59:36.183Z,90.00
2023-03-22T10:02:29.533Z,88.57
2023-03-22T10:05:42.268Z,90.12
2023-03-22T10:08:15.421Z,91.36
2023-03-22T10:10:43.231Z,89.39
2023-03-22T10:13:19.951Z,89.17
2023-03-22T10:15:59.212Z,88.02
2023-03-22T10:18:47.338Z,87.50
2023-03-22T10:21:16.871Z,87.35
2023-03-22T10:23:55.651Z,84.24
2023-03-22T10:26:45.744Z,83.25
2023-03-22T10:29:28.554Z,78.53
2023-03-22T10:31:55.647Z,75.87
2023-03-22T10:34:31.287Z,73.81
2023-03-22T10:37:02.335Z,73.32
2023-03-22T10:39:34.300Z,72.22
2023-03-22T10:42:10.764Z,70.91
2023-03-22T10:45:10.307Z,72.00
2023-03-22T10:48:39.065Z,69.26
2023-03-22T11:17:46.108Z,63.49
2023-03-22T11:20:19.337Z,65.56
2023-03-22T11:22:48.283Z,65.49
2023-03-22T11:25:20.999Z,64.87
2023-03-22T11:28:06.455Z,63.74
2023-03-22T11:30:34.215Z,63.53
2023-03-22T11:33:18.946Z,62.42
2023-03-22T11:35:48.597Z,61.56
2023-03-22T11:38:38.309Z,62.94
2023-03-22T11:41:07.652Z,62.07
2023-03-22T11:43:40.836Z,62.87
2023-03-22T11:46:08.930Z,61.81
2023-03-22T11:48:37.590Z,62.89
2023-03-22T11:51:25.901Z,62.24
2023-03-22T11:53:57.113Z,58.48
2023-03-22T11:56:29.756Z,53.90
2023-03-22T11:59:04.077Z,47.22
2023-03-22T12:01:51.408Z,42.58
2023-03-22T12:04:27.045Z,40.93
2023-03-22T12:07:00.600Z,44.34
2023-03-22T12:10:02.128Z,46.55
2023-03-22T12:12:47.449Z,51.41
2023-03-22T12:15:24.010Z,54.14
2023-03-22T12:18:03.554Z,55.80
2023-03-22T12:20:42.073Z,56.58
2023-03-22T12:23:15.726Z,59.27
2023-03-22T12:25:49.467Z,60.13
2023-03-22T12:28:21.076Z,62.53
2023-03-22T12:30:54.518Z,64.02
2023-03-22T12:33:27.860Z,66.12
2023-03-22T12:36:04.614Z,64.81
2023-03-22T12:38:35.612Z,65.83
2023-03-22T12:41:07.360Z,65.71
2023-03-22T12:43:56.772Z,65.25
2023-03-22T12:46:31.732Z,66.56
2023-03-22T12:49:05.777Z,68.27
2023-03-22T12:51:32.971Z,67.27
2023-03-22T12:54:01.682Z,69.55
2023-03-22T12:56:45.179Z,68.63
2023-03-22T12:59:26.693Z,67.18
2023-03-22T13:01:59.491Z,67.10
2023-03-22T13:04:34.806Z,64.09
2023-03-22T13:07:13.719Z,61.19
2023-03-22T13:09:49.062Z,63.69
2023-03-22T13:12:18.529Z,63.23
2023-03-22T13:14:57.736Z,64.20
2023-03-22T13:17:24.973Z,63.20
2023-03-22T13:20:07.897Z,62.01
2023-03-22T13:22:38.164Z,61.34
2023-03-22T13:25:12.899Z,62.41
2023-03-22T13:27:45.521Z,63.81
2023-03-22T13:30:24.362Z,60.25
2023-03-22T13:33:20.799Z,61.16
2023-03-22T13:35:52.762Z,63.62
2023-03-22T13:38:35.490Z,64.95
2023-03-22T13:41:26.585Z,64.35
2023-03-22T13:43:57.198Z,67.14
2023-03-22T13:46:45.619Z,68.75
2023-03-22T13:49:22.427Z,68.06
2023-03-22T13:51:50.398Z,68.59
2023-03-22T13:54:32.818Z,68.49
2023-03-22T13:57:01.519Z,66.37
2023-03-22T14:00:08.887Z,65.46
2023-03-22T14:02:42.900Z,65.24
2023-03-22T14:05:16.573Z,67.05
2023-03-22T14:07:58.164Z,68.24
2023-03-22T14:10:31.064Z,68.53
2023-03-22T14:13:19.317Z,69.44
2023-03-22T14:15:50.729Z,69.31
2023-03-22T14:18:31.541Z,66.92
2023-03-22T14:21:01.606Z,67.01
